Terminal Aerodrome Forecast
Issued by NWS Wakefield, VA

Home | Current Version | Previous Version | Text Only | Print | Product List | Glossary On
Versions: 1 2 3 4 5 6 7 8 9 10 11 12 13 14 15 16 17 18
000
FTUS41 KAKQ 030200 AAA
TAFSBY
TAF AMD
KSBY 030212Z 0302/0324 20005KT P6SM SCT080
     FM030300 24005KT P6SM SCT050 BKN080
      TEMPO 0303/0305 VRB15G25KT 3SM SHRA BKN050
     FM030900 30004KT P6SM BKN250
     FM031600 01005KT P6SM SCT250
     FM032100 08003KT P6SM SCT250=

USA.gov is the U.S. government's official web portal to all federal, state and local government web resources and services.